Time;durP1;ratioP1;P1;durP2;ratioP2;P2;SDS_P1;SDS_P2;PMS_P1;PMS_P2;Temp;Humidity;BMP_temperature;BMP_pressure;BME280_temperature;BME280_humidity;BME280_pressure;Samples;Min_cycle;Max_cycle;Signal;HPM_P1;HPM_P2
2024/03/02 00:00:13;;;;;;;5.95;2.97;;;7.90;99.90;;;;;;5067770;28;20091;-65
2024/03/02 00:02:46;;;;;;;6.22;3.28;;;7.90;99.90;;;;;;5067788;28;20093;-65
2024/03/02 00:05:13;;;;;;;4.13;3.03;;;7.90;99.90;;;;;;5066373;28;20063;-66
2024/03/02 00:07:43;;;;;;;6.55;3.05;;;7.90;99.90;;;;;;5063321;28;20237;-65
2024/03/02 00:10:13;;;;;;;5.72;3.50;;;7.90;99.90;;;;;;5068405;28;20044;-66
2024/03/02 00:12:39;;;;;;;7.22;3.38;;;7.90;99.90;;;;;;5068639;28;20335;-66
2024/03/02 00:15:41;;;;;;;8.10;3.40;;;7.90;99.90;;;;;;5067838;28;20052;-65
2024/03/02 00:18:08;;;;;;;7.10;3.45;;;7.90;99.90;;;;;;5068116;28;20040;-64
2024/03/02 00:20:34;;;;;;;7.18;3.58;;;7.90;99.90;;;;;;5067813;28;20342;-65
2024/03/02 00:23:04;;;;;;;4.93;3.40;;;8.00;99.90;;;;;;5068282;28;20225;-65
2024/03/02 00:25:42;;;;;;;6.65;3.38;;;8.10;99.90;;;;;;5067718;28;20459;-64
2024/03/02 00:28:16;;;;;;;6.05;3.70;;;7.90;99.90;;;;;;5068227;28;20048;-67
2024/03/02 00:31:13;;;;;;;5.38;3.17;;;7.90;99.90;;;;;;5067397;28;20044;-65
2024/03/02 00:33:43;;;;;;;7.60;3.95;;;7.90;99.90;;;;;;5062679;28;20417;-65
2024/03/02 00:36:11;;;;;;;7.20;3.40;;;8.30;99.90;;;;;;5067540;28;20440;-66
2024/03/02 00:38:48;;;;;;;8.73;3.80;;;7.90;99.90;;;;;;5068278;28;20025;-66
2024/03/02 00:41:27;;;;;;;8.38;3.78;;;8.00;99.90;;;;;;5062377;28;20045;-64
2024/03/02 00:44:00;;;;;;;7.15;3.33;;;7.90;99.90;;;;;;5033082;28;20325;-66
2024/03/02 00:46:29;;;;;;;6.75;3.40;;;7.90;99.90;;;;;;5062428;28;20036;-64
2024/03/02 00:49:03;;;;;;;6.22;3.40;;;7.90;99.90;;;;;;5067407;28;20054;-64
2024/03/02 00:51:33;;;;;;;5.88;3.58;;;7.90;99.90;;;;;;5067173;28;20037;-66
2024/03/02 00:54:03;;;;;;;5.60;3.40;;;7.90;99.90;;;;;;5067463;28;20036;-66
2024/03/02 00:56:29;;;;;;;6.22;3.38;;;7.90;99.90;;;;;;5063079;28;20397;-66
2024/03/02 00:58:56;;;;;;;8.07;3.40;;;7.90;99.90;;;;;;5066838;28;20572;-64
2024/03/02 01:01:22;;;;;;;6.50;3.30;;;7.90;99.90;;;;;;5063346;28;20037;-66
2024/03/02 01:03:48;;;;;;;7.53;3.40;;;7.90;99.90;;;;;;5065835;28;20074;-65
2024/03/02 01:06:15;;;;;;;7.30;3.40;;;7.90;99.90;;;;;;5063584;28;20041;-63
2024/03/02 01:08:41;;;;;;;5.20;3.03;;;7.90;99.90;;;;;;5066791;28;20039;-65
2024/03/02 01:11:06;;;;;;;9.07;3.47;;;7.90;99.90;;;;;;5066544;28;20095;-65
2024/03/02 01:13:32;;;;;;;6.28;3.38;;;7.90;99.90;;;;;;5051086;28;20044;-65
2024/03/02 01:15:58;;;;;;;6.10;3.45;;;7.90;99.90;;;;;;5040289;28;20300;-65
2024/03/02 01:18:24;;;;;;;5.78;3.40;;;7.90;99.90;;;;;;5063602;28;20033;-63
2024/03/02 01:20:55;;;;;;;6.60;3.60;;;7.90;99.90;;;;;;5063034;28;20032;-64
2024/03/02 01:23:22;;;;;;;6.65;3.47;;;7.80;99.90;;;;;;5066966;28;20029;-63
2024/03/02 01:25:48;;;;;;;5.50;3.42;;;7.90;99.90;;;;;;5059292;28;20139;-63
2024/03/02 01:28:14;;;;;;;5.35;3.10;;;7.80;99.90;;;;;;5066947;28;20111;-65
2024/03/02 01:30:40;;;;;;;6.15;3.22;;;7.80;99.90;;;;;;5049185;28;20489;-63
2024/03/02 01:33:06;;;;;;;6.90;3.08;;;7.80;99.90;;;;;;5066598;28;20079;-63
2024/03/02 01:35:32;;;;;;;6.07;3.42;;;7.80;99.90;;;;;;5066920;28;20497;-64
2024/03/02 01:37:58;;;;;;;8.20;3.33;;;7.80;99.90;;;;;;5066715;28;20491;-63
2024/03/02 01:40:27;;;;;;;8.63;3.28;;;7.80;99.90;;;;;;5066140;28;20104;-64
2024/03/02 01:42:54;;;;;;;11.00;4.07;;;7.80;99.90;;;;;;5031930;28;20094;-64
2024/03/02 01:45:20;;;;;;;6.35;3.08;;;7.80;99.90;;;;;;5058823;28;20512;-64
2024/03/02 01:47:46;;;;;;;5.63;3.22;;;7.80;99.90;;;;;;5066787;28;20149;-64
2024/03/02 01:50:11;;;;;;;7.07;3.42;;;7.80;99.90;;;;;;5066033;28;20548;-67
2024/03/02 01:52:38;;;;;;;5.43;3.17;;;7.80;99.90;;;;;;5061713;28;20092;-63
2024/03/02 01:55:04;;;;;;;5.53;3.05;;;7.90;99.90;;;;;;5066699;28;20055;-66
2024/03/02 01:57:30;;;;;;;7.47;3.22;;;7.80;99.90;;;;;;5066989;28;20033;-66
2024/03/02 01:59:56;;;;;;;4.85;2.97;;;7.80;99.90;;;;;;5059154;28;20299;-65
2024/03/02 02:02:21;;;;;;;5.40;3.28;;;7.80;99.90;;;;;;5066362;28;20116;-63
2024/03/02 02:04:47;;;;;;;6.13;3.25;;;7.80;99.90;;;;;;5066822;28;20132;-63
2024/03/02 02:07:14;;;;;;;4.88;3.08;;;7.80;99.90;;;;;;5063279;28;20481;-63
2024/03/02 02:09:43;;;;;;;4.72;2.95;;;8.00;99.90;;;;;;5043173;28;20066;-63
2024/03/02 02:12:12;;;;;;;6.45;3.30;;;7.80;99.90;;;;;;5064285;28;20093;-64
2024/03/02 02:14:39;;;;;;;5.47;2.83;;;7.80;99.90;;;;;;5066358;28;20048;-65
2024/03/02 02:17:05;;;;;;;5.65;3.22;;;7.80;99.90;;;;;;5059458;28;20052;-64
2024/03/02 02:19:31;;;;;;;8.18;3.03;;;7.90;99.90;;;;;;5048230;28;20041;-65
2024/03/02 02:21:56;;;;;;;5.95;3.30;;;7.80;99.90;;;;;;5065977;28;20481;-65
2024/03/02 02:24:22;;;;;;;5.88;3.15;;;7.90;99.90;;;;;;5066080;28;20032;-64
2024/03/02 02:26:47;;;;;;;5.15;2.83;;;7.80;99.90;;;;;;5066228;28;20070;-64
2024/03/02 02:29:13;;;;;;;5.65;3.10;;;7.90;99.90;;;;;;5065427;28;20544;-64
2024/03/02 02:31:42;;;;;;;6.35;3.03;;;7.90;99.90;;;;;;5065981;28;20162;-65
2024/03/02 02:34:09;;;;;;;6.15;3.03;;;7.90;99.90;;;;;;5065688;28;20908;-64
2024/03/02 02:36:38;;;;;;;6.82;3.30;;;7.80;99.90;;;;;;5065782;28;20036;-65
2024/03/02 02:39:06;;;;;;;5.53;3.22;;;7.90;99.90;;;;;;5060738;28;20040;-65
2024/03/02 02:41:32;;;;;;;5.22;2.95;;;7.80;99.90;;;;;;5065609;28;20831;-64
2024/03/02 02:43:57;;;;;;;7.78;3.22;;;7.90;99.90;;;;;;5065843;28;20032;-66
2024/03/02 02:46:23;;;;;;;8.23;3.47;;;7.90;99.90;;;;;;5066026;28;20044;-64
2024/03/02 02:48:50;;;;;;;5.47;3.03;;;7.90;99.90;;;;;;5064891;28;20041;-65
2024/03/02 02:51:16;;;;;;;5.72;3.10;;;7.90;99.90;;;;;;5053724;28;20084;-66
2024/03/02 02:53:42;;;;;;;5.28;2.78;;;7.90;99.90;;;;;;5061577;28;20040;-65
2024/03/02 02:56:08;;;;;;;8.02;3.50;;;7.90;99.90;;;;;;5065135;28;20036;-66
2024/03/02 02:58:33;;;;;;;5.22;3.10;;;7.90;99.90;;;;;;5063731;28;20040;-64
2024/03/02 03:00:59;;;;;;;6.93;2.83;;;7.90;99.90;;;;;;5047359;28;20121;-66
2024/03/02 03:03:24;;;;;;;8.80;3.13;;;7.90;99.90;;;;;;5047959;28;20478;-66
2024/03/02 03:05:50;;;;;;;5.45;2.90;;;7.90;99.90;;;;;;5059825;28;20390;-66
2024/03/02 03:08:16;;;;;;;5.32;2.97;;;7.90;99.90;;;;;;5065955;28;20045;-66
2024/03/02 03:10:42;;;;;;;5.88;3.08;;;7.90;99.90;;;;;;5065370;28;20401;-65
2024/03/02 03:13:10;;;;;;;7.75;2.88;;;7.90;99.90;;;;;;5065766;28;20115;-66
2024/03/02 03:15:37;;;;;;;6.05;2.95;;;7.80;99.90;;;;;;5065236;28;20036;-65
2024/03/02 03:18:04;;;;;;;4.53;2.80;;;7.80;99.90;;;;;;5065697;28;20165;-65
2024/03/02 03:20:29;;;;;;;7.22;3.05;;;7.90;99.90;;;;;;5064727;28;20028;-66
2024/03/02 03:22:56;;;;;;;5.30;2.88;;;7.90;99.90;;;;;;5058522;28;20455;-66
2024/03/02 03:25:21;;;;;;;6.95;3.40;;;7.90;99.90;;;;;;5068286;28;20043;-66
2024/03/02 03:27:47;;;;;;;8.05;3.10;;;7.90;99.90;;;;;;5064954;28;20487;-65
2024/03/02 03:30:13;;;;;;;5.30;2.90;;;7.90;99.90;;;;;;5061136;28;20037;-65
2024/03/02 03:32:39;;;;;;;7.22;3.20;;;7.80;99.90;;;;;;5068643;28;20044;-66
2024/03/02 03:35:05;;;;;;;6.53;2.92;;;7.90;99.90;;;;;;5062905;28;20131;-65
2024/03/02 03:37:32;;;;;;;4.93;2.92;;;7.90;99.90;;;;;;5069467;28;20040;-65
2024/03/02 03:39:59;;;;;;;5.95;2.80;;;7.80;99.90;;;;;;5063607;28;20344;-66
2024/03/02 03:42:25;;;;;;;7.05;2.85;;;7.90;99.90;;;;;;5051057;28;20044;-65
2024/03/02 03:44:50;;;;;;;7.70;2.92;;;7.80;99.90;;;;;;5050963;28;20040;-64
2024/03/02 03:47:16;;;;;;;5.05;3.05;;;7.80;99.90;;;;;;5044554;28;20071;-65
2024/03/02 03:49:41;;;;;;;5.45;2.50;;;7.80;99.90;;;;;;5050640;28;20040;-66
2024/03/02 03:52:07;;;;;;;5.00;2.70;;;7.80;99.90;;;;;;5069410;28;20040;-65
2024/03/02 03:54:33;;;;;;;6.85;2.90;;;7.80;99.90;;;;;;5069328;28;20403;-65
2024/03/02 03:56:58;;;;;;;6.63;2.97;;;7.80;99.90;;;;;;5051457;28;20466;-66
2024/03/02 03:59:24;;;;;;;7.00;3.20;;;7.80;99.90;;;;;;5068997;28;20111;-66
2024/03/02 04:01:49;;;;;;;9.40;2.90;;;7.80;99.90;;;;;;5069024;28;20028;-64
2024/03/02 04:04:15;;;;;;;5.07;2.55;;;7.80;99.90;;;;;;5068978;28;20554;-66
2024/03/02 04:06:41;;;;;;;7.68;3.13;;;7.80;99.90;;;;;;5049936;28;20470;-64
2024/03/02 04:09:07;;;;;;;6.03;3.08;;;7.80;99.90;;;;;;5069485;28;20032;-63
2024/03/02 04:11:32;;;;;;;6.60;3.00;;;7.80;99.90;;;;;;5068569;28;20043;-64
2024/03/02 04:13:58;;;;;;;6.55;2.90;;;7.80;99.90;;;;;;5049938;28;20405;-64
2024/03/02 04:16:24;;;;;;;5.88;2.97;;;7.80;99.90;;;;;;5069436;28;20029;-64
2024/03/02 04:18:49;;;;;;;7.50;2.90;;;7.80;99.90;;;;;;5068421;28;20120;-65
2024/03/02 04:21:15;;;;;;;4.85;3.00;;;7.80;99.90;;;;;;5067951;28;20752;-63
2024/03/02 04:23:40;;;;;;;7.25;3.08;;;7.80;99.90;;;;;;5061622;28;20044;-64
2024/03/02 04:26:06;;;;;;;5.88;2.80;;;7.80;99.90;;;;;;5064720;28;20048;-63
2024/03/02 04:28:32;;;;;;;8.68;3.10;;;7.80;99.90;;;;;;5068766;28;20059;-67
2024/03/02 04:30:58;;;;;;;4.75;3.00;;;7.80;99.90;;;;;;5049490;28;20059;-64
2024/03/02 04:33:23;;;;;;;8.20;3.33;;;7.80;99.90;;;;;;5068499;28;20033;-63
2024/03/02 04:35:49;;;;;;;4.78;3.28;;;7.80;99.90;;;;;;5068171;28;20028;-65
2024/03/02 04:38:15;;;;;;;6.55;3.13;;;7.80;99.90;;;;;;5050645;28;20067;-63
2024/03/02 04:40:40;;;;;;;6.03;3.13;;;7.80;99.90;;;;;;5068102;28;20028;-63
2024/03/02 04:43:08;;;;;;;5.22;2.55;;;7.80;99.90;;;;;;5067967;28;20147;-66
2024/03/02 04:45:33;;;;;;;4.05;2.13;;;7.80;99.90;;;;;;5068384;28;20098;-64
2024/03/02 04:47:59;;;;;;;5.32;2.42;;;7.80;99.90;;;;;;5066233;28;20040;-63
2024/03/02 04:50:25;;;;;;;3.78;2.30;;;7.80;99.90;;;;;;5068112;28;20036;-64
2024/03/02 04:52:50;;;;;;;4.78;1.95;;;7.80;99.90;;;;;;5068341;28;20040;-66
2024/03/02 04:57:41;;;;;;;2.97;1.80;;;7.80;99.90;;;;;;5063660;28;20045;-65
2024/03/02 05:00:08;;;;;;;3.33;1.83;;;7.80;99.90;;;;;;5048286;28;20474;-64
2024/03/02 05:02:34;;;;;;;3.75;1.60;;;7.70;99.90;;;;;;5046408;28;20032;-64
2024/03/02 05:05:00;;;;;;;2.55;1.45;;;7.70;99.90;;;;;;5067424;28;20119;-64
2024/03/02 05:07:26;;;;;;;1.52;0.88;;;7.60;99.90;;;;;;5068058;28;20123;-63
2024/03/02 05:09:51;;;;;;;1.30;0.82;;;7.60;99.90;;;;;;5067667;28;20060;-64
2024/03/02 05:15:02;;;;;;;1.48;0.82;;;7.60;99.90;;;;;;5067232;28;20687;-64
2024/03/02 05:17:27;;;;;;;0.70;0.60;;;7.70;99.90;;;;;;5066185;28;20485;-64
2024/03/02 05:19:53;;;;;;;2.80;0.52;;;7.70;99.90;;;;;;5067382;28;20032;-63
2024/03/02 05:22:18;;;;;;;2.70;0.70;;;7.70;99.90;;;;;;5048795;28;20040;-63
2024/03/02 05:24:44;;;;;;;3.40;0.77;;;7.80;99.90;;;;;;5048129;28;20028;-63
2024/03/02 05:27:10;;;;;;;1.70;0.80;;;7.80;99.90;;;;;;5067295;28;20402;-64
2024/03/02 05:29:35;;;;;;;1.05;0.63;;;7.80;99.90;;;;;;5065143;28;20040;-66
2024/03/02 05:32:01;;;;;;;2.38;0.70;;;7.70;99.90;;;;;;5049090;28;20275;-64
2024/03/02 05:34:27;;;;;;;2.08;0.68;;;7.80;99.90;;;;;;5032776;28;20122;-65
2024/03/02 05:36:53;;;;;;;3.63;0.70;;;7.70;99.90;;;;;;5066937;28;20519;-65
2024/03/02 05:39:18;;;;;;;0.63;0.40;;;7.70;99.90;;;;;;5066727;28;20028;-64
2024/03/02 05:41:44;;;;;;;2.35;0.60;;;7.70;99.90;;;;;;5067671;28;20366;-64
2024/03/02 05:44:09;;;;;;;1.77;0.63;;;7.70;99.90;;;;;;5049215;28;20039;-63
2024/03/02 05:46:35;;;;;;;1.38;0.60;;;7.60;99.90;;;;;;5062902;28;20045;-63
2024/03/02 05:49:01;;;;;;;1.23;0.60;;;7.60;99.90;;;;;;5064431;28;20049;-64
2024/03/02 05:51:27;;;;;;;3.65;0.80;;;7.50;99.90;;;;;;5067014;28;20131;-63
2024/03/02 05:53:53;;;;;;;1.73;0.65;;;7.50;99.90;;;;;;5045724;28;20083;-64
2024/03/02 05:56:18;;;;;;;1.98;0.65;;;7.40;99.90;;;;;;5066632;28;20113;-64
2024/03/02 06:01:19;;;;;;;3.40;0.77;;;7.30;99.90;;;;;;5066078;28;20508;-64
2024/03/02 06:03:44;;;;;;;0.85;0.60;;;7.20;99.90;;;;;;5062121;28;20029;-66
2024/03/02 06:06:10;;;;;;;2.40;0.80;;;7.30;99.90;;;;;;5031212;28;20148;-64
2024/03/02 06:08:36;;;;;;;1.70;0.70;;;7.20;99.90;;;;;;5048825;28;20500;-64
2024/03/02 06:11:01;;;;;;;2.92;0.70;;;7.10;99.90;;;;;;5066844;28;20350;-64
2024/03/02 06:13:27;;;;;;;0.80;0.65;;;7.00;99.90;;;;;;5064086;28;20489;-65
2024/03/02 06:15:53;;;;;;;1.85;0.80;;;7.00;99.90;;;;;;5063457;28;20044;-67
2024/03/02 06:18:18;;;;;;;1.23;0.50;;;7.00;99.90;;;;;;5048079;28;20045;-63
2024/03/02 06:20:44;;;;;;;3.53;0.95;;;7.00;99.90;;;;;;5066499;28;20133;-64
2024/03/02 06:23:10;;;;;;;1.80;0.80;;;7.00;99.90;;;;;;5066362;28;20405;-64
2024/03/02 06:25:35;;;;;;;0.88;0.70;;;7.00;99.90;;;;;;5048348;28;20037;-64
2024/03/02 06:28:01;;;;;;;2.38;0.90;;;7.00;99.90;;;;;;5066504;28;20111;-66
2024/03/02 06:30:27;;;;;;;4.00;0.85;;;7.00;99.90;;;;;;5065731;28;20029;-64
2024/03/02 06:32:52;;;;;;;2.15;0.90;;;7.00;99.90;;;;;;5067070;28;20684;-64
2024/03/02 06:35:18;;;;;;;1.95;0.60;;;7.00;99.90;;;;;;5048640;28;20040;-64
2024/03/02 06:37:43;;;;;;;1.00;0.80;;;7.00;99.90;;;;;;5058797;28;20120;-67
2024/03/02 06:40:09;;;;;;;1.27;0.68;;;7.00;99.90;;;;;;5064730;28;20037;-64
2024/03/02 06:42:35;;;;;;;2.17;0.82;;;7.00;99.90;;;;;;5065994;28;20719;-65
2024/03/02 06:45:02;;;;;;;0.77;0.63;;;7.10;99.90;;;;;;5046516;28;20107;-64
2024/03/02 06:47:28;;;;;;;2.90;0.77;;;7.00;99.90;;;;;;5066189;28;20395;-66
2024/03/02 06:49:53;;;;;;;1.25;0.80;;;7.00;99.90;;;;;;5065817;28;20037;-64
2024/03/02 06:52:20;;;;;;;1.75;0.65;;;7.00;99.90;;;;;;5064666;28;20044;-64
2024/03/02 06:54:46;;;;;;;2.65;0.90;;;7.00;99.90;;;;;;5066338;28;20036;-68
2024/03/02 06:57:12;;;;;;;1.80;0.70;;;7.00;99.90;;;;;;5063163;28;20071;-67
2024/03/02 06:59:37;;;;;;;4.03;0.90;;;7.00;99.90;;;;;;5067797;28;20477;-64
2024/03/02 07:02:03;;;;;;;0.73;0.70;;;7.00;99.90;;;;;;5069954;28;20484;-64
2024/03/02 07:04:29;;;;;;;2.33;0.95;;;6.90;99.90;;;;;;5070340;28;20033;-64
2024/03/02 07:06:54;;;;;;;1.58;0.90;;;7.00;99.90;;;;;;5070299;28;20037;-65
2024/03/02 07:09:22;;;;;;;2.72;0.70;;;6.90;99.90;;;;;;5069863;28;20036;-66
2024/03/02 07:11:49;;;;;;;8.80;0.93;;;6.90;99.90;;;;;;5069295;28;20551;-64
2024/03/02 07:14:14;;;;;;;1.27;0.82;;;6.90;99.90;;;;;;5069573;28;20090;-66
2024/03/02 07:16:40;;;;;;;2.28;0.80;;;6.90;99.90;;;;;;5069591;28;20036;-66
2024/03/02 07:19:06;;;;;;;3.63;0.95;;;6.90;99.90;;;;;;5069602;28;20051;-65
2024/03/02 07:21:33;;;;;;;2.13;0.80;;;6.90;99.90;;;;;;5069336;28;20115;-64
2024/03/02 07:23:59;;;;;;;2.05;0.77;;;6.90;99.90;;;;;;5051694;28;20516;-65
2024/03/02 07:26:25;;;;;;;3.08;1.00;;;6.90;99.90;;;;;;5051402;28;20075;-65
2024/03/02 07:28:51;;;;;;;1.83;0.80;;;6.90;99.90;;;;;;5051372;28;20047;-67
2024/03/02 07:31:17;;;;;;;2.17;0.80;;;6.90;99.90;;;;;;5069015;28;20093;-67
2024/03/02 07:33:46;;;;;;;1.60;0.63;;;6.90;99.90;;;;;;5068811;28;20036;-64
2024/03/02 07:36:12;;;;;;;7.30;1.00;;;6.90;99.90;;;;;;5051131;28;20105;-64
2024/03/02 07:38:38;;;;;;;3.08;0.80;;;6.90;99.90;;;;;;5068616;28;20044;-64
2024/03/02 07:41:04;;;;;;;2.95;1.00;;;7.00;99.90;;;;;;5050824;28;20033;-64
2024/03/02 07:43:31;;;;;;;9.13;1.55;;;7.00;99.90;;;;;;5069630;28;20501;-64
2024/03/02 07:45:57;;;;;;;2.15;0.82;;;7.00;99.90;;;;;;5068843;28;20143;-66
2024/03/02 07:48:23;;;;;;;5.43;1.25;;;7.00;99.90;;;;;;5051268;28;20147;-64
2024/03/02 07:50:48;;;;;;;3.20;1.00;;;7.00;99.90;;;;;;5068544;28;20036;-64
2024/03/02 07:53:14;;;;;;;3.28;1.10;;;7.00;99.90;;;;;;5068827;28;20036;-64
2024/03/02 07:55:40;;;;;;;4.05;1.10;;;7.10;99.90;;;;;;5068616;28;20420;-65
2024/03/02 07:58:06;;;;;;;7.03;1.25;;;7.10;99.90;;;;;;5069121;28;20423;-67
2024/03/02 08:00:32;;;;;;;5.03;1.40;;;7.10;99.90;;;;;;5068327;28;20044;-64
2024/03/02 08:02:58;;;;;;;6.40;1.27;;;7.10;99.90;;;;;;5050965;28;20389;-65
2024/03/02 08:05:23;;;;;;;4.80;1.10;;;7.10;99.90;;;;;;5051059;28;20044;-65
2024/03/02 08:07:52;;;;;;;4.30;1.00;;;7.10;99.90;;;;;;5050335;28;20457;-64
2024/03/02 08:10:18;;;;;;;2.08;0.98;;;7.20;99.90;;;;;;5032823;28;20116;-66
2024/03/02 08:12:44;;;;;;;5.07;1.10;;;7.20;99.90;;;;;;5068712;28;20135;-66
2024/03/02 08:15:09;;;;;;;2.92;1.10;;;7.30;99.90;;;;;;5068806;28;20185;-64
2024/03/02 08:17:35;;;;;;;4.90;1.20;;;7.30;99.90;;;;;;5068992;28;20115;-64
2024/03/02 08:20:01;;;;;;;6.57;1.20;;;7.40;99.90;;;;;;5051673;28;20518;-64
2024/03/02 08:22:27;;;;;;;3.58;1.00;;;7.40;99.90;;;;;;5050281;28;20116;-64
2024/03/02 08:24:53;;;;;;;4.35;0.90;;;7.40;99.90;;;;;;5067927;28;20123;-64
2024/03/02 08:27:19;;;;;;;3.22;1.00;;;7.40;99.90;;;;;;5068296;28;20088;-64
2024/03/02 08:29:44;;;;;;;4.80;1.02;;;7.50;99.90;;;;;;5067602;28;20083;-67
2024/03/02 08:32:10;;;;;;;3.70;1.10;;;7.50;99.90;;;;;;5068024;28;20040;-65
2024/03/02 08:34:35;;;;;;;10.43;1.65;;;7.50;99.90;;;;;;5061833;28;20036;-65
2024/03/02 08:37:02;;;;;;;19.70;2.55;;;7.60;99.90;;;;;;5067415;28;20071;-65
2024/03/02 08:39:28;;;;;;;6.65;1.38;;;7.60;99.90;;;;;;5067626;28;20493;-65
2024/03/02 08:41:54;;;;;;;4.60;1.05;;;7.60;99.90;;;;;;5049822;28;20050;-66
2024/03/02 08:44:20;;;;;;;2.85;1.00;;;7.70;99.90;;;;;;5050559;28;20506;-66
2024/03/02 08:46:46;;;;;;;3.83;1.20;;;7.70;99.90;;;;;;5067931;28;20082;-66
2024/03/02 08:49:12;;;;;;;4.30;1.10;;;7.80;99.90;;;;;;5067582;28;20464;-66
2024/03/02 08:51:37;;;;;;;2.88;0.90;;;7.80;99.90;;;;;;5067578;28;20040;-66
2024/03/02 08:54:04;;;;;;;8.90;1.15;;;7.90;99.90;;;;;;5063985;28;20041;-65
2024/03/02 08:56:30;;;;;;;7.18;1.35;;;8.00;99.90;;;;;;5067985;28;20097;-66
2024/03/02 08:58:56;;;;;;;3.85;1.10;;;8.10;99.90;;;;;;5067361;28;20040;-64
2024/03/02 09:01:22;;;;;;;4.18;1.20;;;8.20;99.90;;;;;;5067285;28;20485;-65
2024/03/02 09:03:49;;;;;;;1.63;1.05;;;8.20;99.90;;;;;;5067549;28;20068;-65
2024/03/02 09:06:16;;;;;;;3.50;1.08;;;8.30;99.90;;;;;;5062681;28;20401;-66
2024/03/02 09:08:43;;;;;;;2.38;1.27;;;8.40;99.90;;;;;;5067786;28;20111;-66
2024/03/02 09:11:10;;;;;;;3.08;1.00;;;8.40;99.90;;;;;;5063563;28;20401;-65
2024/03/02 09:13:36;;;;;;;3.10;1.10;;;8.40;99.90;;;;;;5061735;28;20076;-65
2024/03/02 09:16:03;;;;;;;4.45;0.93;;;8.50;99.90;;;;;;5066657;28;20153;-65
2024/03/02 09:18:29;;;;;;;2.35;0.90;;;8.50;99.90;;;;;;5067540;28;20028;-66
2024/03/02 09:20:55;;;;;;;2.08;1.00;;;8.60;99.90;;;;;;5048356;28;20497;-66
2024/03/02 09:23:21;;;;;;;2.67;0.93;;;8.60;99.90;;;;;;5061606;28;20047;-66
2024/03/02 09:25:46;;;;;;;3.00;1.27;;;8.70;99.90;;;;;;5067411;28;20113;-66
2024/03/02 09:28:15;;;;;;;2.65;1.20;;;8.70;99.90;;;;;;5065991;28;20086;-66
2024/03/02 09:30:41;;;;;;;5.00;1.00;;;8.70;99.90;;;;;;5066639;28;20045;-66
2024/03/02 09:33:06;;;;;;;1.88;1.00;;;8.80;99.90;;;;;;5064188;28;20485;-65
2024/03/02 09:35:32;;;;;;;5.45;1.30;;;8.80;99.90;;;;;;5066837;28;20036;-66
2024/03/02 09:37:58;;;;;;;3.67;1.10;;;8.80;99.90;;;;;;5066918;28;20035;-66
2024/03/02 09:40:24;;;;;;;2.88;1.50;;;8.80;99.90;;;;;;5061963;28;20040;-66
2024/03/02 09:42:52;;;;;;;6.00;1.40;;;8.80;99.90;;;;;;5066946;28;20031;-66
2024/03/02 09:45:25;;;;;;;7.20;1.42;;;8.90;99.90;;;;;;5063170;28;20040;-66
2024/03/02 09:47:51;;;;;;;8.68;1.30;;;8.90;99.90;;;;;;5066707;28;20044;-65
2024/03/02 09:50:17;;;;;;;9.00;1.38;;;8.90;99.90;;;;;;5065654;28;20051;-64
2024/03/02 09:52:43;;;;;;;5.90;1.30;;;8.90;99.90;;;;;;5061970;28;20083;-66
2024/03/02 09:55:09;;;;;;;3.90;0.93;;;9.00;99.90;;;;;;5066611;28;20045;-66
2024/03/02 09:57:35;;;;;;;15.10;1.45;;;9.00;99.90;;;;;;5066983;28;20037;-64
2024/03/02 10:00:00;;;;;;;3.17;0.95;;;9.10;99.90;;;;;;5063343;28;20429;-66
2024/03/02 10:02:26;;;;;;;7.32;1.30;;;9.10;99.90;;;;;;5066818;28;20390;-66
2024/03/02 10:04:52;;;;;;;3.60;1.25;;;9.20;99.90;;;;;;5066226;28;20040;-65
2024/03/02 10:07:18;;;;;;;3.10;0.88;;;9.20;99.90;;;;;;5066301;28;20037;-65
2024/03/02 10:09:48;;;;;;;4.63;1.05;;;9.20;99.90;;;;;;5062880;28;20048;-66
2024/03/02 10:12:16;;;;;;;7.63;1.08;;;9.20;99.90;;;;;;5066243;28;20058;-65
2024/03/02 10:14:42;;;;;;;5.60;0.95;;;9.20;99.90;;;;;;5063109;28;20079;-65
2024/03/02 10:17:10;;;;;;;3.35;0.95;;;9.30;99.90;;;;;;5064589;28;20041;-66
2024/03/02 10:19:36;;;;;;;5.40;1.00;;;9.30;99.90;;;;;;5064678;28;20103;-65
2024/03/02 10:22:07;;;;;;;4.05;1.15;;;9.40;99.90;;;;;;5063633;28;20144;-65
2024/03/02 10:24:41;;;;;;;3.75;1.00;;;9.50;99.90;;;;;;5066676;28;20115;-65
2024/03/02 10:27:10;;;;;;;2.72;1.00;;;9.50;99.90;;;;;;5059186;28;20033;-66
2024/03/02 10:29:40;;;;;;;2.10;0.90;;;9.50;99.90;;;;;;5065681;28;20039;-65
2024/03/02 10:32:08;;;;;;;3.72;1.00;;;9.60;99.90;;;;;;5046198;28;20059;-64
2024/03/02 10:34:35;;;;;;;2.10;0.88;;;9.70;99.90;;;;;;5069456;28;20036;-64
2024/03/02 10:37:01;;;;;;;5.18;1.05;;;9.80;99.90;;;;;;5069938;28;20063;-65
2024/03/02 10:39:27;;;;;;;4.60;1.13;;;10.00;99.90;;;;;;5067910;28;20496;-66
2024/03/02 10:41:55;;;;;;;5.07;1.65;;;10.10;99.90;;;;;;5067471;28;21907;-66
2024/03/02 10:44:22;;;;;;;4.45;1.40;;;10.20;99.90;;;;;;5062287;28;20456;-65
2024/03/02 10:46:50;;;;;;;5.85;1.20;;;10.30;99.90;;;;;;5066596;28;20420;-65
2024/03/02 10:49:17;;;;;;;4.80;1.30;;;10.50;99.90;;;;;;5069774;28;20126;-66
2024/03/02 10:51:43;;;;;;;4.53;1.50;;;10.70;99.90;;;;;;5069571;28;20071;-66
2024/03/02 10:54:09;;;;;;;3.30;1.00;;;10.80;99.90;;;;;;5062751;28;20458;-65
2024/03/02 10:56:39;;;;;;;3.50;1.20;;;10.90;99.90;;;;;;5050075;28;20063;-65
2024/03/02 10:59:26;;;;;;;2.05;1.00;;;11.10;99.90;;;;;;5069957;28;20409;-65
2024/03/02 11:01:56;;;;;;;4.93;1.52;;;11.20;99.90;;;;;;5069969;28;20076;-66
2024/03/02 11:04:24;;;;;;;7.28;1.10;;;11.30;99.90;;;;;;5061181;28;20066;-66
2024/03/02 11:06:51;;;;;;;4.63;1.15;;;11.40;99.90;;;;;;5069639;28;20040;-65
2024/03/02 11:09:22;;;;;;;6.07;1.20;;;11.50;99.90;;;;;;5068507;28;20501;-64
2024/03/02 11:12:06;;;;;;;4.63;1.20;;;11.60;99.90;;;;;;5051963;28;20048;-65
2024/03/02 11:14:35;;;;;;;5.13;1.10;;;11.70;99.90;;;;;;5063111;28;20111;-65
2024/03/02 11:17:03;;;;;;;2.20;0.90;;;11.80;99.90;;;;;;5069593;28;20087;-65
2024/03/02 11:19:29;;;;;;;3.88;1.17;;;11.90;99.90;;;;;;5069132;28;20111;-66
2024/03/02 11:21:55;;;;;;;;;;;12.00;99.90;;;;;;5068562;28;20127;-63
2024/03/02 11:24:23;;;;;;;5.32;1.25;;;12.10;99.90;;;;;;5068880;28;19991;-63
2024/03/02 11:26:53;;;;;;;3.47;1.05;;;12.20;99.90;;;;;;5067976;28;20048;-63
2024/03/02 11:29:36;;;;;;;3.28;1.13;;;12.30;99.90;;;;;;5067754;28;20105;-64
2024/03/02 11:32:04;;;;;;;5.07;1.08;;;12.40;99.90;;;;;;5066070;28;20059;-63
2024/03/02 11:34:39;;;;;;;3.72;1.00;;;12.40;99.90;;;;;;5067667;28;20067;-62
2024/03/02 11:37:05;;;;;;;;;;;12.50;99.90;;;;;;5069905;28;20115;-64
2024/03/02 11:39:30;;;;;;;;;;;12.50;99.90;;;;;;5069350;28;20364;-63
2024/03/02 11:41:57;;;;;;;5.80;1.20;;;12.60;99.90;;;;;;5068780;28;20073;-61
2024/03/02 11:44:24;;;;;;;;;;;12.60;99.90;;;;;;5068612;28;20031;-64
2024/03/02 11:46:59;;;;;;;3.80;0.90;;;12.70;99.90;;;;;;5068223;28;20464;-64
2024/03/02 11:49:38;;;;;;;5.03;1.10;;;12.70;99.90;;;;;;5062576;28;20659;-64
2024/03/02 11:52:05;;;;;;;2.35;1.00;;;12.60;99.90;;;;;;5069006;28;20039;-61
2024/03/02 11:54:34;;;;;;;4.40;1.20;;;12.50;99.90;;;;;;5068204;28;20044;-64
2024/03/02 11:57:02;;;;;;;3.60;1.10;;;12.40;99.90;;;;;;5068748;28;20043;-64
2024/03/02 11:59:29;;;;;;;3.10;1.10;;;12.30;99.90;;;;;;5061877;28;20378;-64
2024/03/02 12:01:55;;;;;;;3.28;1.10;;;12.40;99.90;;;;;;5064988;28;20543;-64
2024/03/02 12:04:22;;;;;;;4.47;1.33;;;12.40;99.90;;;;;;5066074;28;20032;-63
2024/03/02 12:06:54;;;;;;;2.88;1.13;;;12.50;99.90;;;;;;5062209;28;20041;-64
2024/03/02 12:09:20;;;;;;;;;;;12.60;99.90;;;;;;5064734;28;20119;-64
2024/03/02 12:11:45;;;;;;;;;;;12.60;99.90;;;;;;5062857;28;19920;-64
2024/03/02 12:14:14;;;;;;;3.88;1.38;;;12.70;99.90;;;;;;5067163;28;19923;-64
2024/03/02 12:16:43;;;;;;;;;;;12.80;99.90;;;;;;5060550;28;20079;-64
2024/03/02 12:19:09;;;;;;;;;;;12.90;99.90;;;;;;5068598;28;19921;-63
2024/03/02 12:21:35;;;;;;;8.65;2.88;;;13.00;99.90;;;;;;5067688;28;19920;-63
2024/03/02 12:24:01;;;;;;;4.50;1.20;;;13.10;99.90;;;;;;5067890;28;20077;-64
2024/03/02 12:26:28;;;;;;;6.97;1.40;;;13.10;99.90;;;;;;5068247;28;20470;-64
2024/03/02 12:28:53;;;;;;;3.33;1.30;;;13.10;99.90;;;;;;5067855;28;20044;-64
2024/03/02 12:31:20;;;;;;;5.50;1.30;;;13.10;99.90;;;;;;5062372;28;20405;-62
2024/03/02 12:33:46;;;;;;;6.40;1.90;;;13.10;99.90;;;;;;5068460;28;20068;-64
2024/03/02 12:36:13;;;;;;;6.03;1.63;;;13.10;99.90;;;;;;5067859;28;20051;-63
2024/03/02 12:38:44;;;;;;;8.30;1.60;;;13.10;99.90;;;;;;5061562;28;20412;-65
2024/03/02 12:41:09;;;;;;;7.72;1.88;;;13.10;99.90;;;;;;5049445;28;20556;-63
2024/03/02 12:43:35;;;;;;;5.80;1.50;;;13.10;99.90;;;;;;5067781;28;20043;-62
2024/03/02 12:46:00;;;;;;;6.85;1.55;;;13.00;99.90;;;;;;5065016;28;20071;-64
2024/03/02 12:48:26;;;;;;;4.70;1.55;;;13.00;99.90;;;;;;5067719;28;20489;-64
2024/03/02 12:50:52;;;;;;;4.25;1.20;;;13.10;99.90;;;;;;5061028;28;20040;-64
2024/03/02 12:53:18;;;;;;;5.20;1.50;;;13.20;99.90;;;;;;5066901;28;20391;-63
2024/03/02 12:55:44;;;;;;;6.25;1.45;;;13.20;99.90;;;;;;5066912;28;20036;-65
2024/03/02 12:58:31;;;;;;;4.07;1.50;;;13.20;99.90;;;;;;5067479;28;20456;-63
2024/03/02 13:01:07;;;;;;;4.88;1.50;;;13.20;99.90;;;;;;5067107;28;20036;-64
2024/03/02 13:03:36;;;;;;;4.75;1.48;;;13.20;99.90;;;;;;5067621;28;20037;-64